Time;durP1;ratioP1;P1;durP2;ratioP2;P2;SDS_P1;SDS_P2;PMS_P1;PMS_P2;Temp;Humidity;BMP_temperature;BMP_pressure;BME280_temperature;BME280_humidity;BME280_pressure;Samples;Min_cycle;Max_cycle;Signal;HPM_P1;HPM_P2
2021/01/19 00:01:23;;;;;;;1.70;1.58;;;0.10;99.90;;;;;;4165720;28;20057;-90
2021/01/19 00:03:24;;;;;;;0.85;0.82;;;0.10;99.90;;;;;;4179713;28;20052;-90
2021/01/19 00:05:25;;;;;;;2.70;1.60;;;0.20;99.90;;;;;;4166972;28;20132;-90
2021/01/19 00:07:28;;;;;;;1.38;1.27;;;0.20;99.90;;;;;;4181443;28;20053;-91
2021/01/19 00:09:29;;;;;;;1.60;1.45;;;0.30;99.90;;;;;;4158983;28;20652;-90
2021/01/19 00:11:30;;;;;;;1.42;1.33;;;0.30;99.90;;;;;;4182157;28;20127;-91
2021/01/19 00:13:32;;;;;;;6.32;2.05;;;0.30;99.90;;;;;;4182019;28;20052;-91
2021/01/19 00:15:33;;;;;;;4.55;1.25;;;0.20;99.90;;;;;;4212192;28;20066;-90
2021/01/19 00:17:35;;;;;;;1.50;1.17;;;0.20;99.90;;;;;;4196821;28;20508;-90
2021/01/19 00:19:36;;;;;;;2.17;2.03;;;0.20;99.90;;;;;;4198397;28;20135;-91
2021/01/19 00:21:37;;;;;;;1.15;1.13;;;0.10;99.90;;;;;;4215482;28;20044;-90
2021/01/19 00:23:38;;;;;;;8.18;2.05;;;0.10;99.90;;;;;;4179845;28;20078;-90
2021/01/19 00:25:40;;;;;;;2.58;2.35;;;0.20;99.90;;;;;;4165356;28;20481;-90
2021/01/19 00:27:41;;;;;;;5.07;2.30;;;0.10;99.90;;;;;;4165907;28;20059;-90
2021/01/19 00:29:43;;;;;;;2.25;1.65;;;0.10;99.90;;;;;;4165055;28;20057;-90
2021/01/19 00:31:44;;;;;;;1.45;1.20;;;0.10;99.90;;;;;;4165268;28;20520;-90
2021/01/19 00:33:45;;;;;;;12.52;2.63;;;0.10;99.90;;;;;;4196082;28;20051;-91
2021/01/19 00:35:47;;;;;;;1.48;1.38;;;0.10;99.90;;;;;;4164413;28;20045;-90
2021/01/19 00:37:48;;;;;;;3.05;1.55;;;0.10;99.90;;;;;;4163642;28;20156;-90
2021/01/19 00:39:49;;;;;;;3.42;3.13;;;0.10;99.90;;;;;;4180633;28;20049;-90
2021/01/19 00:41:50;;;;;;;3.08;2.05;;;0.10;99.90;;;;;;4164289;28;20049;-91
2021/01/19 00:43:52;;;;;;;0.93;0.93;;;0.10;99.90;;;;;;4181315;28;20044;-90
2021/01/19 00:45:53;;;;;;;1.10;0.95;;;0.00;99.90;;;;;;4196840;28;20061;-91
2021/01/19 00:47:55;;;;;;;2.40;2.25;;;0.10;99.90;;;;;;4154608;28;20045;-90
2021/01/19 00:49:56;;;;;;;1.58;1.48;;;0.10;99.90;;;;;;4166831;28;20073;-90
2021/01/19 00:51:57;;;;;;;5.97;2.10;;;0.10;99.90;;;;;;4181588;28;20044;-90
2021/01/19 00:53:59;;;;;;;3.35;2.35;;;0.20;99.90;;;;;;4197467;28;20075;-90
2021/01/19 00:56:00;;;;;;;1.98;1.52;;;0.20;99.90;;;;;;4164545;28;20046;-90
2021/01/19 00:58:01;;;;;;;2.53;2.33;;;0.00;99.90;;;;;;4181976;28;20044;-90
2021/01/19 01:00:07;;;;;;;2.08;1.15;;;0.10;99.90;;;;;;4165538;28;20053;-89
2021/01/19 01:02:09;;;;;;;6.47;3.45;;;0.10;99.90;;;;;;4172452;28;20053;-90
2021/01/19 01:04:10;;;;;;;0.88;0.88;;;0.00;99.90;;;;;;4207066;28;20108;-90
2021/01/19 01:06:15;;;;;;;2.03;1.92;;;0.00;99.90;;;;;;4185948;28;20535;-90
2021/01/19 01:08:16;;;;;;;1.13;1.02;;;0.10;99.90;;;;;;4165439;28;20135;-90
2021/01/19 01:10:18;;;;;;;2.92;2.17;;;0.10;99.90;;;;;;4165161;28;20518;-90
2021/01/19 01:12:19;;;;;;;4.00;2.28;;;0.00;99.90;;;;;;4180869;28;20053;-91
2021/01/19 01:14:20;;;;;;;9.43;3.20;;;0.10;99.90;;;;;;4180675;28;20053;-90
2021/01/19 01:16:22;;;;;;;12.13;2.38;;;0.00;99.90;;;;;;4181518;28;20404;-90
2021/01/19 01:18:23;;;;;;;0.77;0.77;;;0.10;99.90;;;;;;4179058;28;20048;-90
2021/01/19 01:20:24;;;;;;;1.08;1.00;;;0.00;99.90;;;;;;4181138;28;20584;-90
2021/01/19 01:22:25;;;;;;;3.70;3.40;;;0.00;99.90;;;;;;4180029;28;20052;-90
2021/01/19 01:24:27;;;;;;;1.75;1.65;;;0.00;99.90;;;;;;4162629;28;20053;-90
2021/01/19 01:26:28;;;;;;;2.15;1.95;;;0.00;99.90;;;;;;4157874;28;20045;-90
2021/01/19 01:28:29;;;;;;;1.85;1.75;;;0.00;99.90;;;;;;4180635;28;20045;-91
2021/01/19 01:30:30;;;;;;;5.22;2.30;;;0.00;99.90;;;;;;4180328;28;20060;-91
2021/01/19 01:32:32;;;;;;;0.85;0.85;;;0.00;99.90;;;;;;4156365;28;20053;-90
2021/01/19 01:34:33;;;;;;;1.92;1.42;;;0.10;99.90;;;;;;4148249;28;20062;-90
2021/01/19 01:36:41;;;;;;;2.75;2.33;;;0.10;99.90;;;;;;4173880;28;20048;-90
2021/01/19 01:38:42;;;;;;;5.30;1.58;;;0.00;99.90;;;;;;4164259;28;20525;-90
2021/01/19 01:40:43;;;;;;;2.47;2.28;;;0.10;99.90;;;;;;4164050;28;20529;-91
2021/01/19 01:42:45;;;;;;;1.50;1.40;;;0.10;99.90;;;;;;4161960;28;20056;-92
2021/01/19 01:44:49;;;;;;;2.88;1.88;;;0.10;99.90;;;;;;4154907;28;20148;-90
2021/01/19 01:46:50;;;;;;;3.90;2.08;;;0.10;99.90;;;;;;4197427;28;20055;-90
2021/01/19 01:48:52;;;;;;;2.92;2.22;;;0.00;99.90;;;;;;4195271;28;20067;-91
2021/01/19 01:50:53;;;;;;;3.42;1.85;;;0.10;99.90;;;;;;4189906;28;20140;-90
2021/01/19 01:52:54;;;;;;;2.45;2.25;;;0.10;99.90;;;;;;4178807;28;20504;-90
2021/01/19 01:54:56;;;;;;;1.25;1.13;;;0.10;99.90;;;;;;4163580;28;20050;-90
2021/01/19 01:56:57;;;;;;;1.67;1.58;;;0.00;99.90;;;;;;4180476;28;20044;-90
2021/01/19 01:59:00;;;;;;;3.35;2.20;;;0.00;99.90;;;;;;4160559;28;20073;-90
2021/01/19 02:01:02;;;;;;;1.67;1.40;;;0.00;99.90;;;;;;4164582;28;20049;-90
2021/01/19 02:03:04;;;;;;;1.30;0.68;;;0.00;99.90;;;;;;4163498;28;20052;-90
2021/01/19 02:05:06;;;;;;;1.50;1.40;;;0.10;99.90;;;;;;4162614;28;20093;-90
2021/01/19 02:08:04;;;;;;;0.68;0.68;;;0.00;99.90;;;;;;4200940;28;20496;-90
2021/01/19 02:10:15;;;;;;;5.22;2.15;;;0.00;99.90;;;;;;4183606;28;20144;-90
2021/01/19 02:12:22;;;;;;;1.38;1.33;;;-0.10;99.90;;;;;;4153022;28;20049;-90
2021/01/19 02:14:41;;;;;;;1.65;1.55;;;0.00;99.90;;;;;;4135976;28;20585;-91
2021/01/19 02:16:44;;;;;;;5.13;2.72;;;0.10;99.90;;;;;;4133406;28;20550;-92
2021/01/19 02:19:18;;;;;;;5.35;2.53;;;0.00;99.90;;;;;;4161511;28;20049;-90
2021/01/19 02:21:40;;;;;;;2.80;2.08;;;0.00;99.90;;;;;;4180059;28;20083;-91
2021/01/19 02:23:49;;;;;;;1.17;1.08;;;-0.10;99.90;;;;;;4179815;28;20056;-90
2021/01/19 02:26:04;;;;;;;0.60;0.60;;;-0.10;99.90;;;;;;4179134;28;20191;-90
2021/01/19 02:28:28;;;;;;;0.93;0.93;;;-0.10;99.90;;;;;;4180095;28;20061;-91
2021/01/19 02:30:50;;;;;;;1.35;1.13;;;-0.10;99.90;;;;;;4162805;28;20097;-91
2021/01/19 02:33:21;;;;;;;1.70;1.60;;;-0.10;99.90;;;;;;4179444;28;20053;-91
2021/01/19 02:35:28;;;;;;;3.50;1.63;;;-0.20;99.90;;;;;;4146180;28;20046;-90
2021/01/19 02:37:53;;;;;;;1.52;1.42;;;-0.30;99.90;;;;;;4163329;28;20093;-91
2021/01/19 02:40:04;;;;;;;1.83;1.67;;;-0.20;99.90;;;;;;4165713;28;20053;-91
2021/01/19 02:42:10;;;;;;;3.03;2.28;;;-0.30;99.90;;;;;;4190051;28;20052;-91
2021/01/19 02:44:22;;;;;;;2.03;1.92;;;-0.30;99.90;;;;;;4162078;28;20073;-90
2021/01/19 02:46:24;;;;;;;2.42;1.50;;;-0.30;99.90;;;;;;4179970;28;20651;-90
2021/01/19 02:48:26;;;;;;;1.77;1.67;;;-0.20;99.90;;;;;;4194758;28;20048;-91
2021/01/19 02:50:27;;;;;;;0.95;0.95;;;-0.20;99.90;;;;;;4160734;28;20513;-91
2021/01/19 02:52:29;;;;;;;3.83;2.00;;;-0.30;99.90;;;;;;4180629;28;20402;-91
2021/01/19 02:54:30;;;;;;;3.15;2.90;;;-0.30;99.90;;;;;;4162341;28;20069;-90
2021/01/19 02:56:55;;;;;;;4.72;1.90;;;-0.30;99.90;;;;;;4196388;28;20048;-90
2021/01/19 02:59:17;;;;;;;3.55;2.40;;;-0.30;99.90;;;;;;4183057;28;20041;-90
2021/01/19 03:01:19;;;;;;;2.33;2.13;;;-0.30;99.90;;;;;;4167133;28;20049;-90
2021/01/19 03:03:21;;;;;;;1.35;1.25;;;-0.30;99.90;;;;;;4180578;28;20044;-90
2021/01/19 03:05:23;;;;;;;1.10;1.10;;;-0.30;99.90;;;;;;4166527;28;20053;-91
2021/01/19 03:07:25;;;;;;;1.27;1.20;;;-0.30;99.90;;;;;;4167170;28;20403;-90
2021/01/19 03:09:26;;;;;;;1.63;1.52;;;-0.30;99.90;;;;;;4196205;28;20437;-90
2021/01/19 03:11:27;;;;;;;1.58;1.48;;;-0.30;99.90;;;;;;4159879;28;20068;-91
2021/01/19 03:13:30;;;;;;;2.60;1.40;;;-0.30;99.90;;;;;;4215947;28;20147;-91
2021/01/19 03:15:31;;;;;;;3.60;1.50;;;-0.30;99.90;;;;;;4195350;28;20146;-92
2021/01/19 03:17:32;;;;;;;1.10;0.65;;;-0.30;99.90;;;;;;4189975;28;20110;-91
2021/01/19 03:19:38;;;;;;;1.67;0.82;;;-0.30;99.90;;;;;;4168265;28;20057;-90
2021/01/19 03:21:39;;;;;;;0.65;0.65;;;-0.30;99.90;;;;;;4187926;28;20115;-91
2021/01/19 03:23:41;;;;;;;1.70;1.40;;;-0.30;99.90;;;;;;4164743;28;20119;-90
2021/01/19 03:25:42;;;;;;;1.63;1.52;;;-0.30;99.90;;;;;;4185765;28;20117;-91
2021/01/19 03:27:43;;;;;;;1.00;0.60;;;-0.30;99.90;;;;;;4183154;28;20061;-90
2021/01/19 03:29:46;;;;;;;1.67;1.58;;;-0.40;99.90;;;;;;4182402;28;20049;-90
2021/01/19 03:31:47;;;;;;;0.35;0.35;;;-0.50;99.90;;;;;;4166207;28;20430;-90
2021/01/19 03:33:49;;;;;;;2.60;1.95;;;-0.50;99.90;;;;;;4181319;28;20049;-90
2021/01/19 03:35:50;;;;;;;2.00;1.67;;;-0.60;99.90;;;;;;4182247;28;20049;-90
2021/01/19 03:37:52;;;;;;;1.90;1.80;;;-0.70;99.90;;;;;;4181386;28;20127;-91
2021/01/19 03:39:53;;;;;;;0.82;0.82;;;-0.70;99.90;;;;;;4183195;28;20057;-90
2021/01/19 03:41:54;;;;;;;1.17;1.08;;;-0.70;99.90;;;;;;4181916;28;20044;-90
2021/01/19 03:43:55;;;;;;;0.73;0.73;;;-0.70;99.90;;;;;;4165939;28;20133;-90
2021/01/19 03:45:57;;;;;;;1.85;1.73;;;-0.70;99.90;;;;;;4165430;28;20438;-91
2021/01/19 03:47:58;;;;;;;1.00;1.00;;;-0.80;99.90;;;;;;4175922;28;20144;-91
2021/01/19 03:49:59;;;;;;;5.20;2.47;;;-0.80;99.90;;;;;;4165861;28;20458;-90
2021/01/19 03:52:01;;;;;;;0.80;0.80;;;-0.80;99.90;;;;;;4161879;28;20060;-91
2021/01/19 03:54:02;;;;;;;2.55;1.30;;;-0.80;99.90;;;;;;4168834;28;20052;-91
2021/01/19 03:56:04;;;;;;;2.63;1.50;;;-0.80;99.90;;;;;;4165295;28;20052;-91
2021/01/19 03:58:05;;;;;;;0.73;0.73;;;-0.80;99.90;;;;;;4165663;28;20049;-90
2021/01/19 04:00:08;;;;;;;1.70;1.60;;;-0.70;99.90;;;;;;4181584;28;20132;-90
2021/01/19 04:02:10;;;;;;;0.90;0.90;;;-0.80;99.90;;;;;;4166234;28;20053;-90
2021/01/19 04:04:11;;;;;;;2.38;2.17;;;-0.80;99.90;;;;;;4182353;28;20076;-90
2021/01/19 04:06:12;;;;;;;0.80;0.80;;;-0.80;99.90;;;;;;4181647;28;20048;-90
2021/01/19 04:08:13;;;;;;;1.00;1.00;;;-0.90;99.90;;;;;;4165609;28;20046;-91
2021/01/19 04:10:15;;;;;;;7.47;3.03;;;-1.00;99.90;;;;;;4165058;28;20136;-90
2021/01/19 04:12:21;;;;;;;1.33;1.27;;;-0.90;99.90;;;;;;4188342;28;20066;-91
2021/01/19 04:14:22;;;;;;;1.52;1.20;;;-1.00;99.90;;;;;;4181680;28;20048;-91
2021/01/19 04:16:23;;;;;;;0.80;0.80;;;-1.00;99.90;;;;;;4182047;28;20057;-90
2021/01/19 04:18:25;;;;;;;2.55;1.75;;;-1.00;99.90;;;;;;4164117;28;20041;-90
2021/01/19 04:20:26;;;;;;;2.25;2.10;;;-0.90;99.90;;;;;;4165072;28;20063;-90
2021/01/19 04:22:28;;;;;;;1.00;1.00;;;-0.90;99.90;;;;;;4181309;28;20508;-90
2021/01/19 04:24:29;;;;;;;1.80;1.70;;;-1.00;99.90;;;;;;4165276;28;20041;-90
2021/01/19 04:26:31;;;;;;;4.30;2.60;;;-1.00;99.90;;;;;;4164824;28;20129;-90
2021/01/19 04:28:32;;;;;;;2.00;1.40;;;-1.00;99.90;;;;;;4182537;28;20052;-91
2021/01/19 04:30:33;;;;;;;3.28;2.88;;;-1.00;99.90;;;;;;4186042;28;20139;-90
2021/01/19 04:32:35;;;;;;;1.38;1.35;;;-1.10;99.90;;;;;;4176323;28;20048;-90
2021/01/19 04:34:37;;;;;;;3.80;2.08;;;-1.10;99.90;;;;;;4171056;28;20053;-90
2021/01/19 04:36:38;;;;;;;2.00;1.50;;;-1.00;99.90;;;;;;4162891;28;20059;-90
2021/01/19 04:38:39;;;;;;;1.17;1.13;;;-1.00;99.90;;;;;;4164812;28;20132;-90
2021/01/19 04:40:41;;;;;;;5.43;3.50;;;-1.00;99.90;;;;;;4164356;28;20045;-90
2021/01/19 04:42:42;;;;;;;3.45;2.97;;;-1.00;99.90;;;;;;4164955;28;20057;-91
2021/01/19 04:44:44;;;;;;;1.35;1.25;;;-1.10;99.90;;;;;;4181017;28;20063;-91
2021/01/19 04:46:45;;;;;;;0.80;0.80;;;-1.10;99.90;;;;;;4181244;28;20053;-91
2021/01/19 04:48:46;;;;;;;1.33;1.23;;;-1.10;99.90;;;;;;4181376;28;20426;-91
2021/01/19 04:50:48;;;;;;;5.38;1.75;;;-1.10;99.90;;;;;;4163693;28;20136;-90
2021/01/19 04:52:49;;;;;;;0.70;0.70;;;-1.20;99.90;;;;;;4163701;28;20057;-90
2021/01/19 04:55:12;;;;;;;4.00;2.42;;;-1.10;99.90;;;;;;4179817;28;20045;-90
2021/01/19 04:57:19;;;;;;;3.00;0.95;;;-1.00;99.90;;;;;;4179602;28;20045;-90
2021/01/19 04:59:23;;;;;;;8.13;2.47;;;-1.10;99.90;;;;;;4163565;28;21559;-90
2021/01/19 05:01:34;;;;;;;3.05;2.72;;;-1.10;99.90;;;;;;4165158;28;20132;-90
2021/01/19 05:03:56;;;;;;;2.00;1.80;;;-1.10;99.90;;;;;;4197663;28;20052;-90
2021/01/19 05:06:01;;;;;;;9.63;1.90;;;-1.10;99.90;;;;;;4180491;28;20049;-90
2021/01/19 05:08:02;;;;;;;2.67;2.50;;;-1.20;99.90;;;;;;4194743;28;20135;-90
2021/01/19 05:10:08;;;;;;;1.23;1.23;;;-1.10;99.90;;;;;;4198079;28;20076;-90
2021/01/19 05:12:09;;;;;;;2.35;2.25;;;-1.20;99.90;;;;;;4180970;28;20135;-91
2021/01/19 05:14:10;;;;;;;0.70;0.70;;;-1.20;99.90;;;;;;4159987;28;20041;-90
2021/01/19 05:16:17;;;;;;;1.58;1.52;;;-1.10;99.90;;;;;;4178463;28;20053;-91
2021/01/19 05:18:18;;;;;;;1.75;1.65;;;-1.10;99.90;;;;;;4177825;28;20045;-90
2021/01/19 05:20:19;;;;;;;8.00;3.97;;;-1.10;99.90;;;;;;4162745;28;20132;-90
2021/01/19 05:22:20;;;;;;;3.55;1.60;;;-1.20;99.90;;;;;;4179399;28;20112;-90
2021/01/19 05:24:23;;;;;;;2.83;1.65;;;-1.10;99.90;;;;;;4180558;28;20412;-90
2021/01/19 05:26:24;;;;;;;3.38;3.17;;;-1.20;99.90;;;;;;4180431;28;20053;-90
2021/01/19 05:28:40;;;;;;;3.03;2.40;;;-1.20;99.90;;;;;;4181416;28;20584;-90
2021/01/19 05:30:41;;;;;;;3.80;3.03;;;-1.20;99.90;;;;;;4166746;28;20049;-91
2021/01/19 05:32:43;;;;;;;3.55;3.22;;;-1.20;99.90;;;;;;4157690;28;20509;-90
2021/01/19 05:34:44;;;;;;;1.10;1.10;;;-1.20;99.90;;;;;;4168358;28;20060;-90
2021/01/19 05:36:47;;;;;;;0.60;0.60;;;-1.10;99.90;;;;;;4183375;28;20428;-90
2021/01/19 05:38:52;;;;;;;2.50;1.63;;;-1.20;99.90;;;;;;4161105;28;20165;-90
2021/01/19 05:40:53;;;;;;;2.13;1.95;;;-1.30;99.90;;;;;;4184458;28;20095;-90
2021/01/19 05:42:54;;;;;;;3.35;3.13;;;-1.30;99.90;;;;;;4186783;28;20045;-89
2021/01/19 05:44:56;;;;;;;2.47;2.30;;;-1.30;99.90;;;;;;4166670;28;20132;-91
2021/01/19 05:47:03;;;;;;;2.17;1.98;;;-1.50;99.90;;;;;;4163627;28;20129;-91
2021/01/19 05:49:05;;;;;;;1.52;1.42;;;-1.40;99.90;;;;;;4193533;28;20060;-90
2021/01/19 05:51:07;;;;;;;0.85;0.85;;;-1.40;99.90;;;;;;4177793;28;20052;-90
2021/01/19 05:53:15;;;;;;;0.75;0.75;;;-1.40;99.90;;;;;;4162541;28;20045;-90
2021/01/19 05:55:25;;;;;;;2.20;1.83;;;-1.40;99.90;;;;;;4180652;28;20092;-90
2021/01/19 05:57:27;;;;;;;1.67;1.58;;;-1.50;99.90;;;;;;4166609;28;20502;-90
2021/01/19 05:59:30;;;;;;;1.48;1.38;;;-1.40;99.90;;;;;;4177635;28;20049;-90
2021/01/19 06:01:33;;;;;;;1.25;1.20;;;-1.40;99.90;;;;;;4180681;28;20131;-89
2021/01/19 06:03:34;;;;;;;1.25;1.23;;;-1.50;99.90;;;;;;4196420;28;20056;-90
2021/01/19 06:05:35;;;;;;;4.47;2.78;;;-1.50;99.90;;;;;;4179586;28;20052;-89
2021/01/19 06:07:37;;;;;;;3.13;2.83;;;-1.60;99.90;;;;;;4163918;28;20132;-90
2021/01/19 06:09:40;;;;;;;3.85;3.55;;;-1.50;99.90;;;;;;4196468;28;20053;-91
2021/01/19 06:11:52;;;;;;;3.38;3.17;;;-1.50;99.90;;;;;;4180381;28;20476;-90
2021/01/19 06:13:54;;;;;;;1.75;1.65;;;-1.40;99.90;;;;;;4162643;28;20482;-90
2021/01/19 06:15:55;;;;;;;9.25;4.00;;;-1.40;99.90;;;;;;4187054;28;20041;-89
2021/01/19 06:17:56;;;;;;;3.33;2.90;;;-1.40;99.90;;;;;;4167880;28;20116;-89
2021/01/19 06:19:58;;;;;;;2.65;2.40;;;-1.40;99.90;;;;;;4176917;28;20044;-89
2021/01/19 06:22:10;;;;;;;5.65;2.80;;;-1.50;99.90;;;;;;4184762;28;20076;-89
2021/01/19 06:24:12;;;;;;;4.97;1.52;;;-1.40;99.90;;;;;;4158445;28;20136;-90
2021/01/19 06:26:13;;;;;;;0.80;0.80;;;-1.40;99.90;;;;;;4163979;28;20136;-90
2021/01/19 06:28:14;;;;;;;2.92;2.22;;;-1.40;99.90;;;;;;4197028;28;20143;-89
2021/01/19 06:30:16;;;;;;;1.20;1.17;;;-1.40;99.90;;;;;;4195310;28;20040;-90
2021/01/19 06:32:18;;;;;;;1.23;1.17;;;-1.40;99.90;;;;;;4163782;28;20077;-88
2021/01/19 06:34:39;;;;;;;1.48;1.25;;;-1.30;99.90;;;;;;4166475;28;20563;-91
2021/01/19 06:36:41;;;;;;;4.03;3.72;;;-1.30;99.90;;;;;;4183070;28;20063;-91
2021/01/19 06:38:47;;;;;;;2.42;2.33;;;-1.20;99.90;;;;;;4199829;28;20128;-91
2021/01/19 06:40:48;;;;;;;4.38;4.00;;;-1.30;99.90;;;;;;4182908;28;20056;-92
2021/01/19 06:42:56;;;;;;;3.40;3.08;;;-1.40;99.90;;;;;;4183282;28;20041;-91
2021/01/19 06:44:59;;;;;;;8.00;6.28;;;-1.30;99.90;;;;;;4180759;28;20056;-92
2021/01/19 06:47:02;;;;;;;1.88;1.70;;;-1.30;99.90;;;;;;4171881;28;20052;-91
2021/01/19 06:49:03;;;;;;;2.35;2.25;;;-1.30;99.90;;;;;;4189212;28;20056;-91
2021/01/19 06:51:06;;;;;;;2.75;2.65;;;-1.40;99.90;;;;;;4198198;28;20052;-91
2021/01/19 06:53:43;;;;;;;3.33;3.03;;;-1.40;99.90;;;;;;4169705;28;20069;-92
2021/01/19 06:56:10;;;;;;;2.40;1.23;;;-1.30;99.90;;;;;;4180698;28;20049;-91
2021/01/19 06:58:18;;;;;;;1.60;1.50;;;-1.30;99.90;;;;;;4181262;28;20496;-92
2021/01/19 07:00:20;;;;;;;10.18;3.55;;;-1.30;99.90;;;;;;4179286;28;20080;-92
2021/01/19 07:02:21;;;;;;;8.48;3.20;;;-1.30;99.90;;;;;;4168146;28;20048;-92
2021/01/19 07:04:23;;;;;;;1.33;1.33;;;-1.30;99.90;;;;;;4166217;28;20055;-85
2021/01/19 07:06:35;;;;;;;1.17;1.10;;;-1.40;99.90;;;;;;4197835;28;20040;-84
2021/01/19 07:08:58;;;;;;;1.13;1.13;;;-1.30;99.90;;;;;;4181122;28;20488;-84
2021/01/19 07:11:06;;;;;;;11.35;3.83;;;-1.30;99.90;;;;;;4197934;28;20132;-84
2021/01/19 07:13:07;;;;;;;1.88;1.70;;;-1.40;99.90;;;;;;4196784;28;20489;-83
2021/01/19 07:15:09;;;;;;;1.83;1.73;;;-1.40;99.90;;;;;;4196251;28;20123;-83
2021/01/19 07:17:16;;;;;;;2.17;1.98;;;-1.40;99.90;;;;;;4180107;28;20547;-83
2021/01/19 07:19:22;;;;;;;3.30;3.08;;;-1.40;99.90;;;;;;4200125;28;20262;-83
2021/01/19 07:21:29;;;;;;;1.83;1.73;;;-1.50;99.90;;;;;;4196129;28;20051;-83
2021/01/19 07:23:46;;;;;;;1.20;1.20;;;-1.40;99.90;;;;;;4180266;28;20148;-83
2021/01/19 07:25:47;;;;;;;3.80;1.52;;;-1.40;99.90;;;;;;4183691;28;20045;-84
2021/01/19 07:27:48;;;;;;;2.85;2.53;;;-1.40;99.90;;;;;;4198573;28;20057;-83
2021/01/19 07:29:49;;;;;;;4.80;2.90;;;-1.40;99.90;;;;;;4195315;28;20045;-84
2021/01/19 07:31:50;;;;;;;2.85;2.60;;;-1.40;99.90;;;;;;4196580;28;20529;-83
2021/01/19 07:33:57;;;;;;;3.10;2.75;;;-1.50;99.90;;;;;;4199478;28;20055;-83
2021/01/19 07:35:58;;;;;;;1.85;1.77;;;-1.50;99.90;;;;;;4165254;28;20514;-82
2021/01/19 07:38:01;;;;;;;3.88;3.58;;;-1.50;99.90;;;;;;4196435;28;20567;-84
2021/01/19 07:40:20;;;;;;;5.28;1.13;;;-1.50;99.90;;;;;;4198769;28;20138;-83
2021/01/19 07:42:22;;;;;;;3.00;2.47;;;-1.40;99.90;;;;;;4163260;28;20505;-83
2021/01/19 07:44:24;;;;;;;1.80;1.70;;;-1.40;99.90;;;;;;4196035;28;20041;-83
2021/01/19 07:46:44;;;;;;;3.30;1.65;;;-1.40;99.90;;;;;;4181928;28;20045;-83
2021/01/19 07:48:45;;;;;;;1.95;1.85;;;-1.30;99.90;;;;;;4196180;28;20557;-83
2021/01/19 07:50:47;;;;;;;9.65;3.20;;;-1.30;99.90;;;;;;4196971;28;20048;-83
2021/01/19 07:52:48;;;;;;;1.15;1.05;;;-1.30;99.90;;;;;;4196685;28;20094;-83
2021/01/19 07:54:49;;;;;;;3.80;3.45;;;-1.30;99.90;;;;;;4197801;28;20132;-86
2021/01/19 07:56:50;;;;;;;0.70;0.70;;;-1.30;99.90;;;;;;4180427;28;20053;-85
2021/01/19 07:58:52;;;;;;;1.10;1.10;;;-1.30;99.90;;;;;;4182040;28;20535;-81
2021/01/19 08:00:56;;;;;;;1.65;1.17;;;-1.20;99.90;;;;;;4198618;28;20048;-84
2021/01/19 08:03:05;;;;;;;3.23;3.03;;;-1.20;99.90;;;;;;4196520;28;20137;-83
2021/01/19 08:05:07;;;;;;;1.98;1.88;;;-1.20;99.90;;;;;;4179139;28;20304;-82
2021/01/19 08:07:15;;;;;;;3.90;2.25;;;-1.20;99.90;;;;;;4211845;28;20060;-84
2021/01/19 08:09:18;;;;;;;1.05;1.05;;;-1.20;99.90;;;;;;4186398;28;20520;-82
2021/01/19 08:11:22;;;;;;;2.97;2.40;;;-1.30;99.90;;;;;;4165780;28;20041;-82
2021/01/19 08:13:37;;;;;;;2.40;2.20;;;-1.20;99.90;;;;;;4181513;28;20052;-82
2021/01/19 08:15:38;;;;;;;1.63;1.52;;;-1.20;99.90;;;;;;4193170;28;20094;-82
2021/01/19 08:17:40;;;;;;;2.53;2.20;;;-1.20;99.90;;;;;;4195072;28;20076;-84
2021/01/19 08:19:44;;;;;;;4.97;3.28;;;-1.20;99.90;;;;;;4181691;28;20056;-83
2021/01/19 08:21:50;;;;;;;1.67;1.35;;;-1.20;99.90;;;;;;4185509;28;20053;-83
2021/01/19 08:23:51;;;;;;;;;;;-1.20;99.90;;;;;;4186871;28;20071;-83
2021/01/19 08:25:52;;;;;;;2.55;2.45;;;-1.20;99.90;;;;;;4181858;28;20484;-84
2021/01/19 08:27:57;;;;;;;1.67;1.58;;;-1.20;99.90;;;;;;4180873;28;20041;-83
2021/01/19 08:29:58;;;;;;;2.70;2.50;;;-1.20;99.90;;;;;;4192061;28;20132;-83
2021/01/19 08:32:00;;;;;;;4.03;1.92;;;-1.10;99.90;;;;;;4187084;28;20432;-83
2021/01/19 08:34:03;;;;;;;3.20;3.00;;;-1.10;99.90;;;;;;4192042;28;20052;-83
2021/01/19 08:36:05;;;;;;;2.67;2.45;;;-1.20;99.90;;;;;;4190322;28;20443;-84
2021/01/19 08:38:07;;;;;;;10.15;2.42;;;-1.20;99.90;;;;;;4194216;28;20124;-84
2021/01/19 08:40:11;;;;;;;2.97;2.65;;;-1.10;99.90;;;;;;4194674;28;20056;-84
2021/01/19 08:42:13;;;;;;;8.40;1.98;;;-1.10;99.90;;;;;;4190861;28;20083;-83
2021/01/19 08:44:15;;;;;;;2.70;1.85;;;-1.00;99.90;;;;;;4193979;28;20230;-85
2021/01/19 08:46:17;;;;;;;1.83;1.45;;;-1.00;99.90;;;;;;4197205;28;20054;-85
2021/01/19 08:48:18;;;;;;;2.45;1.65;;;-0.90;99.90;;;;;;4195214;28;20135;-85
2021/01/19 08:50:20;;;;;;;2.95;1.98;;;-0.80;99.90;;;;;;4177763;28;20041;-84
2021/01/19 08:52:27;;;;;;;9.55;3.83;;;-0.80;99.90;;;;;;4197573;28;20065;-86
2021/01/19 08:54:31;;;;;;;4.20;2.58;;;-0.80;99.90;;;;;;4180475;28;20048;-84
2021/01/19 08:56:36;;;;;;;2.17;1.98;;;-0.70;99.90;;;;;;4196211;28;20072;-83
2021/01/19 08:58:38;;;;;;;3.00;2.80;;;-0.70;99.90;;;;;;4180475;28;20457;-83
2021/01/19 09:00:39;;;;;;;2.47;1.50;;;-0.70;99.90;;;;;;4195971;28;20075;-87
2021/01/19 09:02:40;;;;;;;4.93;2.75;;;-0.70;99.90;;;;;;4195762;28;20055;-82
2021/01/19 09:04:43;;;;;;;1.67;1.58;;;-0.70;99.90;;;;;;4197114;28;20447;-83
2021/01/19 09:06:45;;;;;;;2.45;2.25;;;-0.70;99.90;;;;;;4211196;28;20070;-82
2021/01/19 09:08:56;;;;;;;2.40;2.28;;;-0.70;99.90;;;;;;4194366;28;20053;-82
2021/01/19 09:11:02;;;;;;;3.00;2.00;;;-0.70;99.90;;;;;;4194756;28;20048;-82
2021/01/19 09:13:18;;;;;;;1.13;1.02;;;-0.60;99.90;;;;;;4195025;28;20052;-82
2021/01/19 09:15:20;;;;;;;2.55;2.35;;;-0.60;99.90;;;;;;4194362;28;20082;-82
2021/01/19 09:17:22;;;;;;;3.85;2.33;;;-0.50;99.90;;;;;;4194225;28;20053;-82
2021/01/19 09:19:23;;;;;;;0.85;0.52;;;-0.40;99.90;;;;;;4197655;28;20401;-82
2021/01/19 09:21:25;;;;;;;2.70;1.85;;;-0.30;99.90;;;;;;4194654;28;20054;-82
2021/01/19 09:23:33;;;;;;;2.83;2.42;;;-0.30;99.90;;;;;;4195582;28;20040;-82
2021/01/19 09:25:34;;;;;;;12.80;3.38;;;-0.10;99.90;;;;;;4181075;28;20139;-82
2021/01/19 09:27:36;;;;;;;2.15;1.67;;;0.00;99.90;;;;;;4195930;28;20052;-82
2021/01/19 09:29:37;;;;;;;2.00;1.90;;;0.10;99.90;;;;;;4195750;28;20103;-82
2021/01/19 09:31:38;;;;;;;6.93;3.10;;;0.20;99.90;;;;;;4196457;28;20118;-82
2021/01/19 09:33:40;;;;;;;2.97;1.48;;;0.20;99.90;;;;;;4195319;28;20051;-82
2021/01/19 09:35:41;;;;;;;4.43;3.28;;;0.20;99.90;;;;;;4195449;28;20420;-82
2021/01/19 09:37:42;;;;;;;4.22;3.75;;;0.30;99.90;;;;;;4195932;28;20405;-82
2021/01/19 09:39:45;;;;;;;3.05;2.70;;;0.50;99.90;;;;;;4197569;28;20055;-82
2021/01/19 09:41:46;;;;;;;3.20;2.53;;;0.60;99.90;;;;;;4194011;28;20406;-82
2021/01/19 09:43:49;;;;;;;3.45;1.13;;;0.70;99.90;;;;;;4177673;28;20057;-84
2021/01/19 09:45:51;;;;;;;1.83;1.38;;;0.80;99.90;;;;;;4196302;28;20123;-82
2021/01/19 09:47:52;;;;;;;3.03;2.33;;;0.90;99.90;;;;;;4177342;28;20154;-82
2021/01/19 09:49:54;;;;;;;2.97;2.00;;;1.00;99.90;;;;;;4194696;28;20586;-82
2021/01/19 09:52:07;;;;;;;1.38;1.27;;;1.10;99.90;;;;;;4197326;28;20048;-82
2021/01/19 09:54:08;;;;;;;4.53;1.23;;;1.10;99.90;;;;;;4193841;28;20584;-82
2021/01/19 09:56:17;;;;;;;0.75;0.75;;;1.10;99.90;;;;;;4194343;28;20048;-82
2021/01/19 09:58:22;;;;;;;1.25;1.25;;;1.20;99.90;;;;;;4179595;28;20049;-82
2021/01/19 10:00:26;;;;;;;;;;;1.20;99.90;;;;;;4194251;28;20067;-80
2021/01/19 10:02:28;;;;;;;0.60;0.60;;;1.10;99.90;;;;;;4194331;28;19924;-82
2021/01/19 10:04:31;;;;;;;2.65;2.13;;;1.10;99.90;;;;;;4196846;28;20048;-80
2021/01/19 10:06:32;;;;;;;5.30;1.70;;;1.10;99.90;;;;;;4195752;28;20058;-82
2021/01/19 10:08:37;;;;;;;3.80;2.53;;;1.10;99.90;;;;;;4194448;28;20471;-82
2021/01/19 10:10:40;;;;;;;2.38;2.28;;;1.10;99.90;;;;;;4195165;28;20424;-82
2021/01/19 10:12:42;;;;;;;2.10;1.77;;;1.10;99.90;;;;;;4195190;28;20148;-83
2021/01/19 10:14:44;;;;;;;1.35;0.70;;;1.20;99.90;;;;;;4194723;28;20433;-78
2021/01/19 10:16:55;;;;;;;3.08;1.38;;;1.20;99.90;;;;;;4195434;28;20483;-83
2021/01/19 10:18:56;;;;;;;2.85;2.65;;;1.30;99.90;;;;;;4196851;28;20084;-82
2021/01/19 10:20:58;;;;;;;3.78;2.20;;;1.30;99.90;;;;;;4194840;28;20041;-82
2021/01/19 10:23:00;;;;;;;1.73;1.63;;;1.30;99.90;;;;;;4177888;28;20501;-82
2021/01/19 10:25:02;;;;;;;3.60;2.55;;;1.40;99.90;;;;;;4192480;28;20064;-81
2021/01/19 10:27:07;;;;;;;1.27;1.10;;;1.50;99.90;;;;;;4195170;28;20051;-81
2021/01/19 10:29:08;;;;;;;4.55;1.85;;;1.60;99.90;;;;;;4194054;28;20044;-82
2021/01/19 10:31:20;;;;;;;0.50;0.50;;;1.60;99.90;;;;;;4196695;28;20044;-82
2021/01/19 10:33:26;;;;;;;3.50;1.83;;;1.60;99.90;;;;;;4193642;28;20041;-82
2021/01/19 10:35:35;;;;;;;2.30;1.50;;;1.60;99.90;;;;;;4195082;28;20040;-82
2021/01/19 10:37:36;;;;;;;2.30;2.05;;;1.70;99.90;;;;;;4180522;28;20049;-81
2021/01/19 10:39:58;;;;;;;1.92;1.83;;;1.70;99.90;;;;;;4194362;28;20114;-82
2021/01/19 10:41:59;;;;;;;1.20;1.15;;;1.80;99.90;;;;;;4193551;28;20427;-81
2021/01/19 10:44:00;;;;;;;1.80;1.20;;;1.80;99.90;;;;;;4194629;28;20045;-82
2021/01/19 10:46:01;;;;;;;5.00;2.58;;;1.90;99.90;;;;;;4192774;28;20045;-81
2021/01/19 10:48:03;;;;;;;1.00;0.90;;;1.80;99.90;;;;;;4194422;28;20511;-82
2021/01/19 10:50:11;;;;;;;1.63;1.52;;;1.90;99.90;;;;;;4193696;28;20045;-81